createdAt,value
2023-11-21T13:08:28.436Z,25.80
2023-11-21T13:13:31.427Z,26.30
2023-11-21T13:18:35.356Z,24.73
2023-11-21T13:23:39.100Z,24.50
2023-11-21T13:28:42.994Z,24.37
2023-11-21T13:33:51.126Z,24.67
2023-11-21T13:38:56.008Z,24.60
2023-11-21T13:44:17.754Z,24.47
2023-11-21T13:49:22.589Z,24.90
2023-11-21T13:54:26.262Z,25.30
2023-11-21T13:59:31.402Z,24.50
2023-11-21T14:04:50.890Z,24.47
2023-11-21T14:09:54.033Z,24.43
2023-11-21T14:14:56.271Z,24.83
2023-11-21T14:19:58.146Z,25.23
2023-11-21T14:25:01.247Z,25.60
2023-11-21T14:30:03.061Z,25.13
2023-11-21T14:35:05.598Z,24.33
2023-11-21T14:40:09.159Z,24.17
2023-11-21T14:45:13.450Z,24.10
2023-11-21T14:50:33.945Z,24.77
2023-11-21T14:55:51.922Z,24.93
2023-11-21T15:01:01.343Z,24.53
2023-11-21T15:06:20.521Z,24.03
2023-11-21T15:11:26.499Z,23.50
2023-11-21T15:16:28.442Z,23.77
2023-11-21T15:21:30.330Z,24.20
2023-11-21T15:26:32.044Z,23.10
2023-11-21T15:31:33.860Z,22.40
2023-11-21T15:36:35.578Z,23.20
2023-11-21T15:41:40.633Z,24.13
2023-11-21T15:46:44.438Z,24.17
2023-11-21T15:51:48.455Z,24.43
2023-11-21T15:56:50.091Z,22.30
2023-11-21T16:01:51.824Z,23.57
2023-11-21T16:06:54.701Z,23.10
2023-11-21T16:12:01.546Z,23.17
2023-11-21T16:17:04.209Z,23.93
2023-11-21T16:22:06.941Z,24.13
2023-11-21T16:27:11.688Z,23.17
2023-11-21T16:32:13.717Z,25.00
2023-11-21T16:37:15.439Z,24.57
2023-11-21T16:47:19.144Z,28.53
2023-11-21T16:52:24.181Z,26.03
2023-11-21T16:57:25.973Z,25.70
2023-11-21T17:02:27.701Z,26.87
2023-11-21T17:07:30.445Z,24.67
2023-11-21T17:12:32.151Z,24.27
2023-11-21T17:17:35.284Z,26.15
2023-11-21T17:22:37.282Z,25.73
2023-11-21T17:27:39.348Z,25.93
2023-11-21T17:32:43.680Z,25.73
2023-11-21T17:37:45.881Z,27.23
2023-11-21T17:42:47.745Z,24.70
2023-11-21T17:47:49.646Z,25.53
2023-11-21T17:52:51.391Z,26.93
2023-11-21T17:57:53.702Z,26.97
2023-11-21T18:02:57.588Z,25.50
2023-11-21T18:07:59.353Z,24.90
2023-11-21T18:13:01.162Z,25.07
2023-11-21T18:18:02.931Z,25.27
2023-11-21T18:23:04.630Z,25.87
2023-11-21T18:28:06.338Z,23.93
2023-11-21T18:33:08.068Z,25.10
2023-11-21T18:38:11.506Z,24.07
2023-11-21T18:43:13.317Z,24.43
2023-11-21T18:48:16.858Z,28.97
2023-11-21T18:53:18.851Z,32.97
2023-11-21T18:58:20.623Z,29.00
2023-11-21T19:03:22.603Z,28.37
2023-11-21T19:08:25.003Z,30.37
2023-11-21T19:13:26.877Z,28.73
2023-11-21T19:18:31.063Z,30.47
2023-11-21T19:23:32.820Z,30.47
2023-11-21T19:28:34.805Z,29.83
2023-11-21T19:33:36.833Z,28.20
2023-11-21T19:38:39.062Z,27.00
2023-11-21T19:43:41.480Z,28.70
2023-11-21T19:48:44.242Z,27.67
2023-11-21T19:53:46.422Z,29.30
2023-11-21T19:58:48.660Z,32.27
2023-11-21T20:03:53.308Z,31.23
2023-11-21T20:08:55.497Z,31.67
2023-11-21T20:13:57.803Z,32.23
2023-11-21T20:18:59.816Z,31.37
2023-11-21T20:24:02.790Z,29.17
2023-11-21T20:29:04.661Z,29.27
2023-11-21T20:34:06.638Z,27.57
2023-11-21T20:39:08.829Z,27.80
2023-11-21T20:44:11.097Z,27.47
2023-11-21T20:49:14.250Z,28.03
